Time;durP1;ratioP1;P1;durP2;ratioP2;P2;SDS_P1;SDS_P2;PMS_P1;PMS_P2;Temp;Humidity;BMP_temperature;BMP_pressure;BME280_temperature;BME280_humidity;BME280_pressure;Samples;Min_cycle;Max_cycle;Signal;HPM_P1;HPM_P2
2021/05/30 00:00:03;;;;;;;1.40;0.90;;;;;;;15.38;73.28;99895.65;1733180;81;21106;-77
2021/05/30 00:02:29;;;;;;;1.05;0.72;;;;;;;15.34;71.87;99899.84;1712464;81;21322;-78
2021/05/30 00:04:55;;;;;;;;;;;;;;;15.30;70.80;99895.99;1706618;82;21168;-77
2021/05/30 00:07:23;;;;;;;0.50;0.50;;;;;;;15.29;69.67;99894.34;1709688;82;20499;-77
2021/05/30 00:09:53;;;;;;;0.55;0.45;;;;;;;15.23;69.78;99893.93;1718000;82;22212;-77
2021/05/30 00:12:21;;;;;;;1.20;0.40;;;;;;;15.27;69.25;99895.63;1730717;81;21024;-77
2021/05/30 00:14:49;;;;;;;2.75;0.62;;;;;;;15.29;69.10;99897.03;1735796;81;21501;-78
2021/05/30 00:17:17;;;;;;;0.42;0.42;;;;;;;15.29;69.05;99894.34;1760328;80;21108;-78
2021/05/30 00:19:45;;;;;;;0.60;0.60;;;;;;;15.12;68.88;99871.90;1747436;80;21055;-78
2021/05/30 00:22:13;;;;;;;1.57;0.50;;;;;;;15.22;68.57;99893.66;1733400;80;21081;-78
2021/05/30 00:24:41;;;;;;;0.68;0.60;;;;;;;15.21;68.30;99894.69;1743063;81;21067;-77
2021/05/30 00:27:07;;;;;;;0.40;0.40;;;;;;;15.19;68.42;99895.44;1737098;81;21031;-77
2021/05/30 00:29:33;;;;;;;0.90;0.45;;;;;;;15.19;68.23;99907.52;1744351;81;21085;-76
2021/05/30 00:32:01;;;;;;;2.92;0.62;;;;;;;15.15;68.20;99907.16;1728856;81;21177;-77
2021/05/30 00:34:28;;;;;;;0.88;0.50;;;;;;;15.12;67.91;99901.42;1734163;80;21108;-77
2021/05/30 00:36:54;;;;;;;;;;;;;;;15.09;67.98;99907.27;1748086;80;21058;-77
2021/05/30 00:39:20;;;;;;;1.22;0.78;;;;;;;15.06;68.26;99905.03;1742915;81;20181;-77
2021/05/30 00:41:47;;;;;;;0.65;0.40;;;;;;;14.98;68.46;99907.52;1740980;80;22245;-79
2021/05/30 00:44:29;;;;;;;0.65;0.65;;;;;;;14.99;68.55;99905.11;1746872;80;21067;-78
2021/05/30 00:46:58;;;;;;;7.62;1.05;;;;;;;15.01;68.23;99904.89;1705555;81;21184;-76
2021/05/30 00:49:26;;;;;;;1.50;0.40;;;;;;;15.00;68.20;99900.05;1717605;81;21014;-79
2021/05/30 00:51:53;;;;;;;0.70;0.70;;;;;;;14.99;68.28;99902.42;1719689;82;21093;-79
2021/05/30 00:54:21;;;;;;;1.02;0.85;;;;;;;14.93;68.50;99902.81;1762199;79;21083;-79
2021/05/30 00:56:48;;;;;;;1.30;0.70;;;;;;;14.91;68.58;99906.78;1735256;79;21051;-78
2021/05/30 00:59:15;;;;;;;0.47;0.47;;;;;;;14.90;68.49;99910.50;1710433;81;21119;-77
2021/05/30 01:01:43;;;;;;;1.62;0.80;;;;;;;14.92;68.39;99906.56;1731649;81;21130;-78
2021/05/30 01:04:11;;;;;;;1.85;0.50;;;;;;;14.94;68.09;99905.80;1720474;81;21120;-77
2021/05/30 01:06:40;;;;;;;0.72;0.70;;;;;;;14.92;68.20;99906.56;1711374;81;21116;-77
2021/05/30 01:09:06;;;;;;;1.00;0.60;;;;;;;14.88;67.97;99906.73;1726021;81;21069;-76
2021/05/30 01:11:34;;;;;;;0.93;0.62;;;;;;;14.85;68.44;99909.04;1754555;80;21036;-78
2021/05/30 01:14:02;;;;;;;1.90;0.68;;;;;;;14.83;68.38;99913.28;1744444;80;21083;-77
2021/05/30 01:16:29;;;;;;;0.40;0.30;;;;;;;14.87;68.35;99913.66;1750491;80;21086;-77
2021/05/30 01:19:00;;;;;;;0.75;0.40;;;;;;;14.90;68.36;99917.20;1733107;81;21076;-79
2021/05/30 01:21:27;;;;;;;0.85;0.65;;;;;;;14.91;68.43;99921.01;1730784;82;21096;-77
2021/05/30 01:23:57;;;;;;;5.00;0.75;;;;;;;14.92;68.24;99915.14;1721457;82;21047;-77
2021/05/30 01:26:24;;;;;;;2.08;0.53;;;;;;;14.85;68.41;99915.22;1733267;81;21042;-77
2021/05/30 01:28:51;;;;;;;0.62;0.42;;;;;;;14.79;68.57;99907.55;1749273;80;21132;-76
2021/05/30 01:31:18;;;;;;;2.60;0.62;;;;;;;14.78;68.58;99903.75;1749295;81;21587;-77
2021/05/30 01:33:44;;;;;;;;;;;;;;;14.78;68.66;99898.38;1751487;79;21046;-77
2021/05/30 01:36:11;;;;;;;1.67;0.33;;;;;;;14.78;68.82;99901.06;1776634;79;20326;-76
2021/05/30 01:38:39;;;;;;;1.22;0.60;;;;;;;14.71;69.13;99901.16;1743797;80;21179;-77
2021/05/30 01:41:06;;;;;;;0.60;0.60;;;;;;;14.65;69.21;99898.55;1733153;81;21087;-77
2021/05/30 01:43:35;;;;;;;1.35;1.00;;;;;;;14.59;69.58;99902.42;1726042;81;21101;-78
2021/05/30 01:46:02;;;;;;;3.22;0.68;;;;;;;14.35;69.75;99872.48;1786982;79;21146;-77
2021/05/30 01:48:29;;;;;;;0.50;0.30;;;;;;;14.57;69.86;99909.88;1748739;81;21111;-74
2021/05/30 01:50:56;;;;;;;0.72;0.50;;;;;;;14.57;69.82;99904.52;1757652;80;21061;-77
2021/05/30 01:53:33;;;;;;;0.60;0.60;;;;;;;14.55;69.97;99910.59;1763153;80;21605;-76
2021/05/30 01:58:23;;;;;;;1.82;0.53;;;;;;;14.50;70.39;99913.12;1733840;81;21051;-77
2021/05/30 02:00:50;;;;;;;1.72;0.60;;;;;;;14.52;70.87;99919.11;1703662;81;21143;-77
2021/05/30 02:03:18;;;;;;;1.15;0.55;;;;;;;14.53;70.96;99916.72;1709375;82;21172;-78
2021/05/30 02:05:51;;;;;;;0.50;0.50;;;;;;;14.54;70.92;99925.57;1699538;82;21094;-77
2021/05/30 02:08:19;;;;;;;0.85;0.80;;;;;;;14.55;71.06;99920.52;1729505;81;21093;-77
2021/05/30 02:10:45;;;;;;;1.35;0.88;;;;;;;14.58;71.05;99919.58;1698369;82;21149;-75
2021/05/30 02:13:12;;;;;;;0.80;0.80;;;;;;;14.63;71.21;99914.87;1697784;82;21064;-76
2021/05/30 02:15:40;;;;;;;1.12;0.93;;;;;;;14.66;71.51;99917.11;1699364;83;21118;-77
2021/05/30 02:18:06;;;;;;;0.95;0.90;;;;;;;14.67;71.64;99912.56;1724454;81;21087;-78
2021/05/30 02:20:37;;;;;;;3.77;1.10;;;;;;;14.66;71.80;99910.41;1712105;81;21147;-76
2021/05/30 02:23:05;;;;;;;1.25;1.25;;;;;;;14.65;72.05;99908.75;1726482;81;21130;-75
2021/05/30 02:25:31;;;;;;;1.30;1.20;;;;;;;14.67;72.28;99909.34;1720151;81;21110;-77
2021/05/30 02:27:58;;;;;;;1.40;1.30;;;;;;;14.64;72.74;99915.18;1717943;81;21035;-76
2021/05/30 02:30:26;;;;;;;2.42;1.30;;;;;;;14.59;72.96;99915.84;1719162;81;21071;-77
2021/05/30 02:32:52;;;;;;;1.82;1.45;;;;;;;14.61;73.14;99916.96;1731747;82;21118;-76
2021/05/30 02:35:18;;;;;;;1.55;1.45;;;;;;;14.71;73.42;99920.45;1749274;80;21064;-78
2021/05/30 02:37:45;;;;;;;2.80;2.10;;;;;;;14.82;73.12;99921.55;1752223;81;21153;-77
2021/05/30 02:40:13;;;;;;;1.82;1.60;;;;;;;14.90;72.88;99931.96;1746696;79;21069;-78
2021/05/30 02:42:40;;;;;;;7.60;2.08;;;;;;;14.89;72.96;99931.16;1755940;79;21151;-76
2021/05/30 02:45:10;;;;;;;2.30;1.70;;;;;;;14.91;73.09;99932.27;1741073;80;21090;-77
2021/05/30 02:47:36;;;;;;;2.12;2.02;;;;;;;14.97;73.12;99931.36;1726456;81;21078;-77
2021/05/30 02:50:06;;;;;;;1.35;1.20;;;;;;;15.08;72.91;99929.78;1742864;81;21004;-75
2021/05/30 02:52:33;;;;;;;2.25;1.95;;;;;;;15.11;72.83;99926.12;1718824;82;21031;-75
2021/05/30 02:54:59;;;;;;;1.42;1.42;;;;;;;15.25;72.69;99928.08;1714745;82;21162;-77
2021/05/30 02:57:27;;;;;;;2.08;1.98;;;;;;;15.58;72.29;99936.17;1697392;82;21091;-78
2021/05/30 02:59:53;;;;;;;1.98;1.70;;;;;;;15.89;71.01;99935.05;1732564;81;21105;-78
2021/05/30 03:02:19;;;;;;;1.30;1.30;;;;;;;16.03;70.07;99934.81;1737755;81;21702;-78
2021/05/30 03:04:45;;;;;;;1.32;1.15;;;;;;;16.27;68.71;99926.21;1725620;81;21173;-78
2021/05/30 03:07:12;;;;;;;1.98;1.25;;;;;;;16.41;67.71;99931.64;1730672;81;21095;-76
2021/05/30 03:09:38;;;;;;;1.07;1.07;;;;;;;16.33;67.35;99930.13;1725490;82;21005;-77
2021/05/30 03:12:07;;;;;;;1.55;1.40;;;;;;;16.33;67.35;99930.13;1732749;81;21082;-78
2021/05/30 03:14:33;;;;;;;1.47;1.37;;;;;;;16.20;66.97;99929.55;1745424;80;21090;-77
2021/05/30 03:16:59;;;;;;;2.35;1.35;;;;;;;16.02;67.35;99926.47;1736004;80;21640;-78
2021/05/30 03:19:25;;;;;;;1.22;1.20;;;;;;;15.94;67.52;99933.83;1738781;80;21043;-77
2021/05/30 03:21:52;;;;;;;0.70;0.50;;;;;;;15.92;66.98;99937.28;1737026;80;21135;-76
2021/05/30 03:24:18;;;;;;;3.50;0.78;;;;;;;15.92;66.53;99934.59;1715674;81;21068;-76
2021/05/30 03:26:44;;;;;;;;;;;;;;;15.91;66.78;99938.84;1714310;81;21081;-78
2021/05/30 03:29:10;;;;;;;1.02;0.60;;;;;;;15.82;66.34;99937.55;1714845;82;20157;-78
2021/05/30 03:31:36;;;;;;;2.10;0.45;;;;;;;15.61;66.03;99943.74;1718590;82;20997;-76
2021/05/30 03:34:02;;;;;;;0.70;0.70;;;;;;;15.50;66.39;99940.51;1715132;81;21041;-76
2021/05/30 03:36:30;;;;;;;4.62;0.82;;;;;;;15.39;67.01;99935.43;1678443;83;21095;-77
2021/05/30 03:39:06;;;;;;;0.65;0.62;;;;;;;15.39;66.47;99935.43;1717469;81;21073;-75
2021/05/30 03:41:33;;;;;;;2.00;0.75;;;;;;;15.40;66.11;99939.73;1719801;81;21685;-77
2021/05/30 03:43:59;;;;;;;2.40;1.00;;;;;;;15.33;66.40;99939.85;1727196;81;21046;-76
2021/05/30 03:46:26;;;;;;;1.12;0.50;;;;;;;15.22;66.96;99946.00;1703262;82;21151;-79
2021/05/30 03:48:53;;;;;;;2.05;0.65;;;;;;;15.12;67.49;99941.69;1705164;83;21058;-80
2021/05/30 03:51:18;;;;;;;;;;;;;;;15.11;67.47;99944.09;1700313;83;21085;-75
2021/05/30 03:53:44;;;;;;;1.95;0.55;;;;;;;15.15;67.11;99950.64;1752326;80;20238;-80
2021/05/30 03:56:12;;;;;;;0.80;0.65;;;;;;;15.15;66.92;99951.45;1728548;80;21327;-78
2021/05/30 03:58:38;;;;;;;;;;;;;;;14.89;66.91;99911.03;1712267;83;21094;-79
2021/05/30 04:01:05;;;;;;;1.82;0.40;;;;;;;14.89;66.90;99920.42;1700058;83;20184;-78
2021/05/30 04:03:31;;;;;;;1.75;0.50;;;;;;;15.10;67.24;99952.65;1715095;83;21163;-79
2021/05/30 04:05:57;;;;;;;1.17;0.50;;;;;;;15.23;67.23;99970.45;1717335;82;21119;-79
2021/05/30 04:08:24;;;;;;;;;;;;;;;15.42;66.44;99965.02;1697640;83;21024;-77
2021/05/30 04:10:51;;;;;;;1.05;0.78;;;;;;;15.60;65.50;99965.49;1704323;82;20183;-77
2021/05/30 04:13:18;;;;;;;0.45;0.40;;;;;;;15.62;65.26;99964.20;1712806;82;21134;-79
2021/05/30 04:15:46;;;;;;;2.87;0.70;;;;;;;15.61;65.92;99965.23;1710050;82;21385;-77
2021/05/30 04:18:13;;;;;;;1.15;0.93;;;;;;;15.63;65.32;99970.38;1716676;82;21080;-77
2021/05/30 04:20:39;;;;;;;0.57;0.57;;;;;;;15.65;65.67;99964.25;1724097;81;21662;-79
2021/05/30 04:23:05;;;;;;;4.50;0.75;;;;;;;15.72;65.52;99969.00;1741511;80;21043;-79
2021/05/30 04:25:32;;;;;;;0.75;0.55;;;;;;;15.79;65.23;99955.51;1759058;80;21105;-77
2021/05/30 04:27:58;;;;;;;1.00;0.57;;;;;;;15.88;64.91;99952.74;1746914;80;21027;-77
2021/05/30 04:30:25;;;;;;;2.45;0.50;;;;;;;15.86;64.78;99946.78;1748071;80;21070;-74
2021/05/30 04:32:52;;;;;;;1.32;0.60;;;;;;;15.85;64.76;99945.16;1706424;83;21095;-77
2021/05/30 04:35:18;;;;;;;0.60;0.60;;;;;;;15.86;64.78;99944.94;1733844;80;21057;-77
2021/05/30 04:37:44;;;;;;;;;;;;;;;15.89;64.70;99945.80;1740636;81;21046;-77
2021/05/30 04:40:12;;;;;;;3.07;0.70;;;;;;;15.99;63.98;99951.93;1734226;81;20620;-78
2021/05/30 04:42:38;;;;;;;4.33;0.72;;;;;;;16.00;64.42;99953.58;1736342;81;21051;-79
2021/05/30 04:45:07;;;;;;;1.62;0.50;;;;;;;16.03;64.46;99953.13;1730375;81;21110;-77
2021/05/30 04:47:34;;;;;;;1.82;0.62;;;;;;;16.08;64.42;99953.22;1724758;82;21067;-78
2021/05/30 04:50:00;;;;;;;0.50;0.42;;;;;;;16.13;64.06;99957.91;1711970;82;21146;-77
2021/05/30 04:52:28;;;;;;;0.90;0.57;;;;;;;16.21;63.69;99950.02;1700589;82;21072;-78
2021/05/30 04:54:55;;;;;;;1.17;0.50;;;;;;;16.33;63.29;99949.46;1731705;82;21688;-79
2021/05/30 04:57:22;;;;;;;0.57;0.57;;;;;;;16.40;62.69;99948.81;1701319;81;21070;-79
2021/05/30 04:59:48;;;;;;;0.93;0.50;;;;;;;16.53;62.11;99951.78;1703959;83;21128;-81
2021/05/30 05:02:14;;;;;;;4.78;0.40;;;;;;;16.58;61.93;99952.44;1701055;82;21203;-80
2021/05/30 05:04:40;;;;;;;0.60;0.60;;;;;;;16.62;62.82;99953.59;1717547;82;21067;-78
2021/05/30 05:07:09;;;;;;;1.12;0.37;;;;;;;16.69;61.66;99961.81;1703920;83;21607;-80
2021/05/30 05:09:38;;;;;;;1.55;0.70;;;;;;;16.69;61.17;99955.63;1734421;82;21104;-79
2021/05/30 05:12:06;;;;;;;1.65;1.00;;;;;;;16.61;60.86;99945.21;1714681;81;21679;-80
2021/05/30 05:14:33;;;;;;;2.17;0.70;;;;;;;16.43;61.47;99948.36;1771306;80;21451;-80
2021/05/30 05:17:00;;;;;;;0.45;0.45;;;;;;;16.26;62.13;99949.60;1759356;80;21385;-79
2021/05/30 05:19:26;;;;;;;0.60;0.53;;;;;;;16.20;63.14;99955.09;1771124;80;21065;-80
2021/05/30 05:21:52;;;;;;;0.98;0.42;;;;;;;16.22;62.57;99949.78;1772517;80;21110;-80
2021/05/30 05:24:18;;;;;;;2.45;0.72;;;;;;;16.27;62.75;99947.72;1756836;80;22175;-79
2021/05/30 05:26:44;;;;;;;2.50;0.40;;;;;;;16.24;62.91;99949.02;1776826;80;21024;-78
2021/05/30 05:29:13;;;;;;;0.50;0.50;;;;;;;16.13;62.39;99941.24;1766083;79;21143;-80
2021/05/30 05:31:39;;;;;;;0.93;0.57;;;;;;;16.04;62.81;99945.34;1754470;80;21058;-80
2021/05/30 05:34:05;;;;;;;;;;;;;;;15.93;63.23;99936.74;1721111;81;21052;-82
2021/05/30 05:36:31;;;;;;;0.95;0.50;;;;;;;15.84;63.74;99934.95;1721353;82;20267;-83
2021/05/30 05:38:57;;;;;;;2.15;0.70;;;;;;;15.82;64.00;99936.21;1718687;82;21166;-84
2021/05/30 05:41:25;;;;;;;1.52;0.50;;;;;;;15.92;63.97;99929.75;1721332;82;21059;-81
2021/05/30 05:43:51;;;;;;;1.67;0.40;;;;;;;16.09;64.14;99932.55;1741705;81;21120;-80
2021/05/30 05:46:18;;;;;;;0.60;0.60;;;;;;;16.30;62.60;99920.37;1766339;79;21019;-80
2021/05/30 05:48:44;;;;;;;1.62;0.75;;;;;;;16.54;61.47;99927.34;1772163;80;21000;-79
2021/05/30 05:51:10;;;;;;;0.55;0.55;;;;;;;16.67;61.14;99920.88;1766440;80;21593;-78
2021/05/30 05:53:36;;;;;;;0.70;0.70;;;;;;;16.69;61.15;99924.67;1765676;79;21081;-77
2021/05/30 05:56:02;;;;;;;1.87;0.82;;;;;;;16.70;61.10;99919.57;1775528;80;21038;-78
2021/05/30 05:58:28;;;;;;;0.90;0.60;;;;;;;16.66;61.00;99922.45;1765179;80;21044;-79
2021/05/30 06:00:54;;;;;;;0.88;0.53;;;;;;;16.66;60.63;99931.87;1758134;80;21537;-82
2021/05/30 06:03:20;;;;;;;;;;;;;;;16.58;59.80;99926.88;1697096;83;21204;-81
2021/05/30 06:05:46;;;;;;;1.07;0.50;;;;;;;16.43;60.44;99927.38;1718229;83;20696;-80
2021/05/30 06:08:12;;;;;;;0.78;0.45;;;;;;;16.31;61.08;99916.61;1707773;83;21144;-82
2021/05/30 06:10:38;;;;;;;0.53;0.47;;;;;;;16.25;61.53;99917.03;1700988;81;21148;-77
2021/05/30 06:13:11;;;;;;;0.57;0.57;;;;;;;16.30;61.55;99921.72;1711487;82;21080;-77
2021/05/30 06:15:41;;;;;;;5.75;0.50;;;;;;;16.41;61.59;99919.53;1707087;82;21134;-78
2021/05/30 06:18:12;;;;;;;1.65;0.40;;;;;;;16.55;61.66;99919.54;1725687;80;21094;-79
2021/05/30 06:20:41;;;;;;;2.33;1.20;;;;;;;16.58;60.90;99921.49;1729646;82;21129;-78
2021/05/30 06:23:08;;;;;;;1.02;0.72;;;;;;;16.58;61.04;99926.88;1707938;81;21095;-79
2021/05/30 06:25:34;;;;;;;1.95;0.85;;;;;;;16.61;60.89;99923.69;1696483;83;21059;-79
2021/05/30 06:28:01;;;;;;;1.62;0.78;;;;;;;16.65;60.90;99938.30;1720569;82;21098;-81
2021/05/30 06:30:35;;;;;;;1.57;0.82;;;;;;;16.65;60.90;99938.30;1744620;81;21655;-79
2021/05/30 06:33:00;;;;;;;1.40;0.90;;;;;;;16.66;60.86;99942.63;1704693;82;21222;-77
2021/05/30 06:35:28;;;;;;;2.08;1.17;;;;;;;16.65;60.61;99948.55;1711922;82;21073;-80
2021/05/30 06:37:56;;;;;;;1.57;0.78;;;;;;;16.65;61.10;99951.24;1743781;81;21067;-80
2021/05/30 06:40:22;;;;;;;5.65;0.88;;;;;;;16.57;62.18;99952.94;1723069;83;21137;-76
2021/05/30 06:42:49;;;;;;;1.32;1.00;;;;;;;16.53;62.45;99956.63;1720209;82;21331;-77
2021/05/30 06:45:16;;;;;;;2.20;1.07;;;;;;;16.51;63.33;99954.70;1776840;79;21046;-81
2021/05/30 06:47:42;;;;;;;4.10;1.30;;;;;;;16.48;64.58;99958.39;1782993;79;21021;-80
2021/05/30 06:50:08;;;;;;;1.98;1.67;;;;;;;16.45;65.21;99958.88;1768142;80;21169;-82
2021/05/30 06:52:35;;;;;;;5.17;1.70;;;;;;;16.44;65.19;99964.77;1768448;80;21082;-79
2021/05/30 06:55:01;;;;;;;3.60;1.57;;;;;;;16.40;64.97;99960.92;1781920;79;21158;-81
2021/05/30 06:57:28;;;;;;;3.20;2.20;;;;;;;16.41;65.13;99973.86;1743936;81;21100;-79
2021/05/30 06:59:54;;;;;;;4.42;2.00;;;;;;;16.35;65.47;99965.67;1725859;82;21141;-80
2021/05/30 07:02:24;;;;;;;1.67;1.57;;;;;;;16.29;65.69;99968.47;1743560;81;21108;-81
2021/05/30 07:04:51;;;;;;;2.37;1.98;;;;;;;16.27;65.89;99967.89;1732671;81;21609;-77
2021/05/30 07:07:18;;;;;;;1.50;1.40;;;;;;;16.43;65.36;99973.91;1748693;80;21643;-81
2021/05/30 07:09:46;;;;;;;0.70;0.70;;;;;;;16.73;64.65;99968.89;1758492;80;21087;-83
2021/05/30 07:12:12;;;;;;;0.70;0.60;;;;;;;17.17;61.81;99966.53;1729801;80;21031;-79
2021/05/30 07:14:38;;;;;;;0.45;0.45;;;;;;;17.45;59.43;99969.73;1766282;80;21087;-82
2021/05/30 07:17:04;;;;;;;4.03;0.65;;;;;;;17.53;59.15;99976.61;1728730;80;21552;-83
2021/05/30 07:19:33;;;;;;;0.57;0.50;;;;;;;17.43;59.43;99972.39;1743199;81;21150;-81
2021/05/30 07:21:59;;;;;;;2.37;0.78;;;;;;;17.43;58.99;99981.83;1726852;80;21086;-81
2021/05/30 07:24:26;;;;;;;;;;;;;;;17.54;58.80;99980.95;1767044;80;21015;-80
2021/05/30 07:26:52;;;;;;;0.75;0.53;;;;;;;17.60;58.24;99988.59;1772440;79;20178;-81
2021/05/30 07:29:18;;;;;;;0.53;0.50;;;;;;;17.53;58.70;99983.34;1764353;80;21038;-80
2021/05/30 07:31:48;;;;;;;0.95;0.75;;;;;;;17.51;58.93;99979.53;1769244;80;21212;-83
2021/05/30 07:34:15;;;;;;;2.25;0.60;;;;;;;17.52;59.02;99992.50;1767767;80;21039;-78
2021/05/30 07:36:41;;;;;;;0.40;0.40;;;;;;;17.46;58.89;99986.71;1736149;81;21043;-79
2021/05/30 07:39:07;;;;;;;0.50;0.50;;;;;;;17.47;58.76;99991.86;1726852;80;21127;-81
2021/05/30 07:41:34;;;;;;;0.30;0.30;;;;;;;17.72;57.60;99982.58;1737683;81;21076;-80
2021/05/30 07:44:01;;;;;;;0.45;0.45;;;;;;;17.72;57.60;99982.58;1741473;80;21034;-80
2021/05/30 07:46:29;;;;;;;5.28;0.40;;;;;;;17.84;57.92;99979.32;1726065;81;21142;-81
2021/05/30 07:48:56;;;;;;;4.45;0.20;;;;;;;18.04;56.80;99982.85;1728152;82;21406;-80
2021/05/30 07:51:22;;;;;;;1.60;0.30;;;;;;;18.17;56.74;99980.35;1758040;81;21079;-78
2021/05/30 07:53:48;;;;;;;0.20;0.20;;;;;;;18.23;56.88;99987.98;1733651;81;21101;-87
2021/05/30 07:56:14;;;;;;;0.60;0.60;;;;;;;18.29;56.35;99997.81;1739396;81;21144;-81
2021/05/30 07:58:41;;;;;;;2.85;0.40;;;;;;;18.20;55.80;100009.55;1742272;81;21167;-80
2021/05/30 08:01:07;;;;;;;0.25;0.25;;;;;;;18.02;57.01;100000.35;1750808;80;21071;-81
2021/05/30 08:03:33;;;;;;;0.30;0.28;;;;;;;17.84;56.26;100006.79;1739785;80;21096;-84
2021/05/30 08:05:59;;;;;;;0.65;0.30;;;;;;;17.76;57.14;100001.78;1735438;80;21057;-81
2021/05/30 08:08:27;;;;;;;0.50;0.50;;;;;;;17.76;57.05;99996.39;1750921;81;21043;-82
2021/05/30 08:10:54;;;;;;;2.45;0.35;;;;;;;17.71;57.16;99995.25;1737157;81;21645;-81
2021/05/30 08:13:21;;;;;;;1.70;0.40;;;;;;;17.66;57.70;99995.16;1750545;80;21075;-82
2021/05/30 08:15:48;;;;;;;1.65;0.37;;;;;;;17.65;57.06;99992.70;1772782;80;21154;-82
2021/05/30 08:18:15;;;;;;;0.50;0.42;;;;;;;17.59;57.70;99991.79;1748703;80;21599;-83
2021/05/30 08:20:41;;;;;;;1.27;0.40;;;;;;;17.57;58.88;99996.61;1780312;80;21039;-77
2021/05/30 08:23:08;;;;;;;0.93;0.68;;;;;;;17.54;58.10;99999.81;1753883;79;20948;-80
2021/05/30 08:25:36;;;;;;;0.60;0.40;;;;;;;17.43;57.85;99993.95;1775257;79;21029;-83
2021/05/30 08:28:09;;;;;;;2.40;0.60;;;;;;;17.35;58.16;100001.89;1770059;79;21028;-80
2021/05/30 08:30:32;;;;;;;1.95;0.90;;;;;;;17.27;58.08;100001.76;1805317;78;22575;-83
2021/05/30 08:33:00;;;;;;;0.98;0.50;;;;;;;17.23;58.43;100014.58;1797200;79;20984;-80
2021/05/30 08:35:26;;;;;;;0.20;0.20;;;;;;;17.19;58.02;100004.81;1797051;78;21000;-86
2021/05/30 08:37:55;;;;;;;3.05;0.30;;;;;;;17.15;57.32;100014.44;1804223;78;21107;-82
2021/05/30 08:40:23;;;;;;;0.47;0.30;;;;;;;17.07;58.02;100021.55;1792968;78;21057;-83
2021/05/30 08:42:50;;;;;;;0.70;0.45;;;;;;;16.90;58.28;100018.25;1787952;79;21638;-83
2021/05/30 08:45:17;;;;;;;;;;;;;;;16.76;58.68;100020.88;1796842;79;21623;-83
2021/05/30 08:47:46;;;;;;;0.50;0.40;;;;;;;16.64;59.22;100026.81;1796713;79;20268;-82
2021/05/30 08:50:14;;;;;;;0.50;0.50;;;;;;;16.42;59.71;100031.44;1791925;78;21011;-85
2021/05/30 08:52:41;;;;;;;2.30;0.50;;;;;;;16.28;60.63;100033.55;1776155;78;21130;-83
2021/05/30 08:55:10;;;;;;;3.55;0.40;;;;;;;16.22;61.03;100030.45;1761136;79;21804;-82
2021/05/30 08:57:36;;;;;;;0.60;0.42;;;;;;;16.26;61.22;100029.47;1807700;78;21672;-83
2021/05/30 09:00:06;;;;;;;1.75;0.40;;;;;;;16.32;61.33;100033.91;1802470;79;21069;-83
2021/05/30 09:02:33;;;;;;;2.25;0.45;;;;;;;16.24;62.46;100029.70;1809633;78;22002;-84
2021/05/30 09:05:08;;;;;;;4.22;1.10;;;;;;;16.14;62.74;100043.72;1788125;78;21437;-84
2021/05/30 09:07:47;;;;;;;0.75;0.75;;;;;;;16.01;63.15;100041.75;1786350;78;21031;-84
2021/05/30 09:10:18;;;;;;;1.92;0.68;;;;;;;15.88;63.25;100053.02;1790375;78;21061;-84
2021/05/30 09:12:46;;;;;;;1.90;0.80;;;;;;;15.84;63.58;100058.57;1786850;77;20977;-82
2021/05/30 09:15:49;;;;;;;2.37;0.70;;;;;;;15.79;63.79;100054.94;1764264;79;21762;-83
2021/05/30 09:18:14;;;;;;;;;;;;;;;15.66;64.06;100057.25;1784679;78;21668;-85
2021/05/30 09:21:09;;;;;;;3.30;0.60;;;;;;;15.60;63.15;100056.83;1774229;78;20189;-82
2021/05/30 09:23:41;;;;;;;2.00;0.57;;;;;;;15.52;63.43;100061.97;1755585;79;21066;-84
2021/05/30 09:26:19;;;;;;;1.07;0.45;;;;;;;15.53;63.54;100059.59;1787158;78;21673;-83
2021/05/30 09:29:12;;;;;;;2.47;1.00;;;;;;;15.65;63.62;100062.31;1786841;79;21115;-84
2021/05/30 09:31:58;;;;;;;1.75;1.00;;;;;;;15.75;63.47;100065.31;1799616;77;21106;-83
2021/05/30 09:34:37;;;;;;;3.25;1.22;;;;;;;15.65;62.97;100065.84;1791853;79;21037;-84
2021/05/30 09:37:08;;;;;;;1.80;1.10;;;;;;;15.62;63.24;100072.20;1800098;79;21025;-82
2021/05/30 09:39:44;;;;;;;2.90;1.52;;;;;;;15.71;62.91;100071.64;1801048;78;21079;-81
2021/05/30 09:42:33;;;;;;;1.15;1.00;;;;;;;15.85;62.62;100071.47;1793268;79;21065;-84
2021/05/30 09:45:04;;;;;;;1.85;0.95;;;;;;;15.97;62.40;100083.06;1802060;78;21040;-85
2021/05/30 09:47:46;;;;;;;3.92;0.82;;;;;;;16.04;62.36;100083.78;1807435;78;21048;-83
2021/05/30 09:50:20;;;;;;;4.10;1.27;;;;;;;15.96;62.37;100088.16;1790862;78;21158;-83
2021/05/30 09:52:52;;;;;;;1.75;1.30;;;;;;;15.89;62.58;100082.05;1801009;79;21614;-83
2021/05/30 09:55:29;;;;;;;3.40;1.27;;;;;;;15.86;62.34;100086.53;1804699;77;21060;-82
2021/05/30 09:58:18;;;;;;;0.85;0.85;;;;;;;15.88;62.05;100087.97;1800343;79;21052;-81
2021/05/30 10:01:00;;;;;;;3.40;0.90;;;;;;;15.92;62.16;100088.33;1782896;78;21544;-82
2021/05/30 10:03:28;;;;;;;2.60;1.20;;;;;;;15.87;62.89;100094.91;1783493;79;21059;-84
2021/05/30 10:05:54;;;;;;;1.95;1.35;;;;;;;15.82;63.15;100100.14;1812539;78;21004;-83
2021/05/30 10:08:23;;;;;;;6.30;1.05;;;;;;;15.74;63.47;100087.84;1797919;78;21549;-84
2021/05/30 10:10:51;;;;;;;2.08;1.27;;;;;;;15.71;64.03;100090.45;1806353;77;21063;-85
2021/05/30 10:13:17;;;;;;;1.55;1.05;;;;;;;15.80;63.34;100096.33;1786208;78;21136;-84
2021/05/30 10:15:45;;;;;;;2.83;1.00;;;;;;;15.84;63.09;100101.57;1796281;78;21036;-82
2021/05/30 10:18:22;;;;;;;2.60;1.40;;;;;;;15.83;62.76;100102.61;1808308;78;21032;-83
2021/05/30 10:20:52;;;;;;;2.52;1.62;;;;;;;15.85;63.04;100107.22;1779491;78;21018;-82
2021/05/30 10:23:21;;;;;;;2.33;1.52;;;;;;;15.78;63.19;100104.34;1782451;79;21114;-83
2021/05/30 10:25:49;;;;;;;1.37;1.20;;;;;;;15.62;63.99;100093.69;1803634;78;21136;-80
2021/05/30 10:28:19;;;;;;;1.55;1.45;;;;;;;15.53;63.59;100102.05;1807599;78;20992;-83
2021/05/30 10:30:49;;;;;;;1.90;1.80;;;;;;;15.48;64.09;100093.02;1815121;76;21087;-83
2021/05/30 10:33:21;;;;;;;2.15;1.25;;;;;;;15.44;64.79;100095.88;1804020;79;21013;-83
2021/05/30 10:35:50;;;;;;;1.62;1.52;;;;;;;15.43;64.47;100097.74;1794337;78;21556;-84
2021/05/30 10:38:43;;;;;;;1.30;1.20;;;;;;;15.43;64.45;100119.77;1780857;78;21106;-84
2021/05/30 10:41:24;;;;;;;2.67;1.62;;;;;;;15.35;64.37;100114.98;1809981;78;21057;-82
2021/05/30 10:45:21;;;;;;;1.37;1.27;;;;;;;15.15;65.16;100127.82;1726275;79;22835;-82
2021/05/30 10:48:05;;;;;;;1.25;1.25;;;;;;;15.03;65.42;100128.25;1667504;84;21056;-83
2021/05/30 10:50:38;;;;;;;1.52;1.00;;;;;;;15.04;65.57;100122.66;1659357;84;21127;-82
2021/05/30 10:53:30;;;;;;;1.52;1.20;;;;;;;15.03;65.92;100122.88;1659566;84;21094;-83
2021/05/30 10:56:31;;;;;;;2.67;1.57;;;;;;;15.02;65.56;100123.94;1653923;84;21082;-84
2021/05/30 10:59:15;;;;;;;3.12;1.40;;;;;;;15.01;65.68;100123.62;1635102;85;21214;-83
2021/05/30 11:01:47;;;;;;;5.45;1.45;;;;;;;15.02;65.68;100131.46;1633791;84;22469;-83
2021/05/30 11:04:31;;;;;;;2.10;1.90;;;;;;;15.05;65.59;100127.00;1618870;87;21094;-83
2021/05/30 11:07:22;;;;;;;4.62;1.30;;;;;;;15.07;65.66;100145.55;1590595;87;21166;-82
2021/05/30 11:09:57;;;;;;;2.45;2.27;;;;;;;14.97;66.12;100133.48;1619255;87;21097;-83
2021/05/30 11:12:28;;;;;;;4.62;1.30;;;;;;;14.82;66.65;100128.16;1619258;86;21059;-82
2021/05/30 11:15:19;;;;;;;4.92;1.80;;;;;;;14.75;66.99;100126.36;1642429;86;21036;-82
2021/05/30 11:17:55;;;;;;;1.07;1.07;;;;;;;14.76;66.94;100120.47;1642159;86;21070;-83
2021/05/30 11:20:41;;;;;;;1.57;1.27;;;;;;;14.78;66.75;100124.56;1644280;86;21113;-82
2021/05/30 11:23:12;;;;;;;1.32;1.22;;;;;;;14.82;66.89;100123.59;1638653;85;21122;-83
2021/05/30 11:25:54;;;;;;;2.55;1.95;;;;;;;14.92;66.62;100125.27;1657729;85;21031;-86
2021/05/30 11:28:28;;;;;;;3.02;1.57;;;;;;;15.03;66.25;100132.27;1652311;85;21139;-81
2021/05/30 11:31:07;;;;;;;2.77;1.85;;;;;;;15.04;66.34;100141.45;1652504;85;21070;-81
2021/05/30 11:33:42;;;;;;;1.22;0.93;;;;;;;15.12;65.82;100127.72;1655427;84;21047;-84
2021/05/30 11:36:16;;;;;;;1.02;0.95;;;;;;;15.12;65.28;100134.97;1682698;84;21067;-85
2021/05/30 11:38:54;;;;;;;3.17;1.10;;;;;;;15.03;65.78;100151.91;1676189;84;21045;-82
2021/05/30 11:41:25;;;;;;;2.98;1.32;;;;;;;15.01;65.51;100158.52;1680036;84;21047;-83
2021/05/30 11:44:10;;;;;;;3.50;1.10;;;;;;;15.00;64.97;100163.08;1683356;84;21095;-82
2021/05/30 11:46:50;;;;;;;4.12;1.30;;;;;;;15.03;64.80;100159.11;1683209;84;21051;-81